Huvudsida
METAR-TAF:

METAR-TAF

Flygplatser :

Frosinone, Italien

latitud: 41-38N, longitud: 013-18E, höjd: 180 m

Aktuellt väderrapport

Denna rapport gjordes för 4 timmar och 55 minuter sedan, klockan 17:55 UTC
Vind 3 kt från väst
Temperatur 13°C
Fuktighet 94%
Tryck 1008 hPa
Sikt: 6000 m
Få moln på en höjd av 3000 ft

METAR: LIRH 111755Z 27003KT 6000 FEW030 13/12 Q1008 RMK BKN SCT080 MON INVIS NC VIS MIN 6000 WIND THR16 /////KT WHT

Tid: 23:50 (22:50 UTC)

Väderprognos

Denna rapport gjordes för 8 timmar och 50 minuter sedan, klockan 14:00 UTC
Prognos gäller från 11 kl. 15 UTC till 11 kl. 24 UTC
Vind 8 kt från syd/sydost
Sikt: 8000 m
Spridda moln på en höjd av 3000 ft
Brutna moln på en höjd av 7000 ft
Temporärt
från 11 kl. 15 UTC till 11 kl. 19 UTC
Sikt: 4000 m
Få moln på en höjd av 2500 ft, Cumulonimbus.
Brutna moln på en höjd av 3000 ft
regnskurar

TAF: LIRH 111400Z 1115/1124 16008KT 8000 SCT030 BKN070 TEMPO 1115/1119 4000 SHRA FEW025CB BKN030

Aktuella väderrapporter och prognoser från 4000 flygplatser (METAR- och TAF-rapporter).

De tillgängliga stationerna syns som gula och röda prickar på kartan.

För musen över prickarna för att se namnen på stationerna.

Klicka sedan för att få väderrapporter och prognoser.

För att ändra kartan: Klicka på de gröna knapparna med ett svart kors på för att zooma in; den gröna knappen med ett streck på för att zooma ut; eller på de gröna pilarna för angränsande kartor.


METAR-TAF: